Adana, Turkey

8:32 PM EEST on August 23, 2014 (GMT +0300)
Adana | Change Station
CLOSE
Current Station
Airport
Location: Adana,
Elevation: 66 ft
Nearby Weather Stations

Elev 66 ft 36.98 °N, 35.30 °E | Updated 12 minutes ago

Clear
Clear
82 °F
Feels Like 91 °F
N
5
Wind Variable Wind from ESE

Today
High -- | Low -- °F
--% Chance of Precip.
Yesterday
High -- | Low -- °F
Precip. -- in
6:01 AM 7:20 PM
Waning Crescent, 3% visible
Pressure 29.68 in
Visibility -9999.0 miles
Clouds
Heat Index 91 °F
Dew Point 77 °F
Humidity 84%
Rainfall 0.00 in
Snow Depth Not available.
UV Not available.
Pollen Not available.
Air Quality Not available.
Flu Activity Not available.
METAR LTAF 231720Z 12004KT CAVOK 28/25 Q1005 NOSIG

More Conditions Fewer Conditions

Pressure 29.68 in
Visibility -9999.0 miles
Clouds
Heat Index 91 °F
Dew Point 77 °F
Humidity 84%
Rainfall 0.00 in
Snow Depth Not available.
UV Not available.
Pollen Not available.
Air Quality Not available.
Flu Activity Not available.
METAR LTAF 231720Z 12004KT CAVOK 28/25 Q1005 NOSIG

More Conditions Fewer Conditions

10-Day Weather Forecast

Almanac

Astronomy

Aug. 23, 2014 Rise Set
Actual Time 6:01 AM EEST 7:20 PM EEST
Civil Twilight 5:34 AM EEST 7:47 PM EEST
Nautical Twilight 5:02 AM EEST 8:19 PM EEST
Astronomical Twilight 4:28 AM EEST 8:53 PM EEST
Moon 4:00 AM EEST 5:52 PM EEST
Length of Visible Light 14h 12m
Length of Day
13h 18m
Tomorrow will be 2m 11s shorter.
Waning Crescent, 3% of the Moon is Illuminated
Today
Waning Crescent
Aug 25
New
Sep 2
First Quarter
Sep 8
Full
Sep 15
Last Quarter

Today's Extremes

Country Highs Country Lows

Community

WunderPhotos

Upload Photos

1,746,536 photos uploaded!

WunderBlogs® & News

By Dr. Jeff Masters
Director of Meteorology, Weather Underground
By Kari Strenfel
Meteorologist, Weather Underground
By Christopher C. Burt
Weather Historian, Weather Underground
August 23, 2014
August 23, 2014
August 23, 2014

Nearby

Snow Depth

Not available.

Earthquake Activity

City Distance Mag. Time & Date
No recent earthquake activity has been reported nearby.
Minimum magnitude displayed is 2.5.

Coastal Water Temperatures

Place Temperature
No Stations Reporting

Nearby Weather Stations